Time;durP1;ratioP1;P1;durP2;ratioP2;P2;SDS_P1;SDS_P2;PMS_P1;PMS_P2;Temp;Humidity;BMP_temperature;BMP_pressure;BME280_temperature;BME280_humidity;BME280_pressure;Samples;Min_cycle;Max_cycle;Signal;HPM_P1;HPM_P2
2023/10/11 00:01:58;;;;;;;8.38;4.72;;;;;;;16.03;80.69;101413.81;4995408;28;20022;-47
2023/10/11 00:04:23;;;;;;;6.90;4.47;;;;;;;16.00;80.27;101411.41;4997522;28;20480;-47
2023/10/11 00:06:54;;;;;;;8.13;4.70;;;;;;;15.99;80.19;101411.56;5000424;28;20068;-47
2023/10/11 00:09:34;;;;;;;10.18;4.93;;;;;;;15.97;80.07;101409.03;4997379;28;20065;-47
2023/10/11 00:12:00;;;;;;;9.00;5.03;;;;;;;15.96;79.66;101417.22;4996450;28;20034;-47
2023/10/11 00:14:25;;;;;;;11.82;5.18;;;;;;;15.93;79.93;101412.13;4995894;28;20036;-47
2023/10/11 00:16:53;;;;;;;11.43;5.03;;;;;;;15.94;79.17;101414.66;4994347;28;20029;-47
2023/10/11 00:19:18;;;;;;;12.15;5.05;;;;;;;15.89;79.77;101411.56;4993643;28;20601;-48
2023/10/11 00:21:43;;;;;;;9.77;4.72;;;;;;;15.88;79.44;101409.84;4999057;28;20380;-47
2023/10/11 00:24:09;;;;;;;7.90;4.70;;;;;;;15.85;79.67;101408.31;5014403;28;20156;-47
2023/10/11 00:26:34;;;;;;;10.30;4.70;;;;;;;15.85;79.53;101412.81;4997867;28;20037;-47
2023/10/11 00:29:01;;;;;;;9.63;4.32;;;;;;;15.80;79.66;101409.69;4991680;28;20034;-47
2023/10/11 00:31:26;;;;;;;8.98;5.18;;;;;;;15.81;79.60;101414.91;4994522;28;20128;-48
2023/10/11 00:33:54;;;;;;;11.77;4.82;;;;;;;15.78;79.89;101411.66;4997345;28;20118;-47
2023/10/11 00:36:26;;;;;;;7.10;4.60;;;;;;;15.76;79.56;101411.81;4996103;28;20054;-48
2023/10/11 00:38:51;;;;;;;9.02;5.07;;;;;;;15.73;80.93;101406.69;4993004;28;20030;-47
2023/10/11 00:41:20;;;;;;;11.77;5.20;;;;;;;15.72;80.31;101410.34;5013897;28;20049;-48
2023/10/11 00:43:50;;;;;;;8.02;4.72;;;;;;;15.70;80.03;101407.81;4997847;28;20487;-47
2023/10/11 00:46:19;;;;;;;10.10;5.18;;;;;;;15.68;80.74;101409.78;4999230;28;20133;-48
2023/10/11 00:48:54;;;;;;;10.82;4.55;;;;;;;15.66;80.52;101405.56;4999487;28;20483;-47
2023/10/11 00:51:26;;;;;;;6.30;4.47;;;;;;;15.66;80.50;101405.56;5001782;28;20403;-48
2023/10/11 00:53:52;;;;;;;13.63;5.32;;;;;;;15.66;80.24;101406.38;4999794;28;20030;-48
2023/10/11 00:56:20;;;;;;;8.43;4.72;;;;;;;15.62;80.99;101404.97;5000650;28;20037;-47
2023/10/11 00:58:45;;;;;;;9.07;4.95;;;;;;;15.61;80.83;101397.09;4998849;28;20034;-47
2023/10/11 01:01:11;;;;;;;12.73;5.10;;;;;;;15.59;80.70;101402.56;4998607;28;20030;-48
2023/10/11 01:03:37;;;;;;;10.40;5.00;;;;;;;15.58;80.81;101400.03;4998689;28;20055;-47
2023/10/11 01:06:04;;;;;;;11.07;5.07;;;;;;;15.53;81.53;101403.09;4996607;28;20045;-48
2023/10/11 01:08:38;;;;;;;10.40;4.78;;;;;;;15.52;81.02;101406.75;5000037;28;20051;-48
2023/10/11 01:11:09;;;;;;;12.63;5.47;;;;;;;15.47;81.72;101391.13;4996477;28;20042;-47
2023/10/11 01:13:34;;;;;;;11.18;5.40;;;;;;;15.46;81.41;101396.63;4998984;28;20026;-47
2023/10/11 01:16:05;;;;;;;9.68;5.35;;;;;;;15.43;81.54;101387.00;4998657;28;20027;-47
2023/10/11 01:18:31;;;;;;;7.85;5.13;;;;;;;15.39;82.58;101400.78;5000327;28;20471;-47
2023/10/11 01:20:56;;;;;;;11.25;5.57;;;;;;;15.38;82.31;101399.13;4994591;28;20033;-48
2023/10/11 01:23:21;;;;;;;7.80;5.37;;;;;;;15.34;82.59;101393.19;5000628;28;20030;-49
2023/10/11 01:25:46;;;;;;;9.57;5.20;;;;;;;15.30;82.66;101391.75;4997153;28;20779;-49
2023/10/11 01:28:12;;;;;;;10.13;5.43;;;;;;;15.29;82.50;101398.09;4999376;28;20427;-51
2023/10/11 01:30:37;;;;;;;10.60;5.43;;;;;;;15.25;82.30;101388.63;4998235;28;20034;-49
2023/10/11 01:33:05;;;;;;;10.45;5.25;;;;;;;15.21;82.84;101385.38;5001275;28;20746;-48
2023/10/11 01:35:36;;;;;;;8.30;5.13;;;;;;;15.17;82.65;101383.94;4996161;28;20068;-48
2023/10/11 01:38:04;;;;;;;9.43;5.25;;;;;;;15.14;83.20;101381.56;4999878;28;20033;-49
2023/10/11 01:40:33;;;;;;;13.55;5.60;;;;;;;15.11;83.62;101385.34;4995660;28;20028;-47
2023/10/11 01:42:59;;;;;;;10.43;5.35;;;;;;;15.07;83.34;101389.28;5000252;28;20018;-47
2023/10/11 01:45:24;;;;;;;9.15;4.70;;;;;;;15.03;83.84;101377.13;4996838;28;20042;-48
2023/10/11 01:47:56;;;;;;;10.70;5.30;;;;;;;15.01;83.91;101376.44;4998251;28;20045;-48
2023/10/11 01:50:21;;;;;;;9.63;4.90;;;;;;;14.97;84.04;101366.97;4998227;28;20564;-47
2023/10/11 01:52:47;;;;;;;10.30;5.03;;;;;;;14.95;84.19;101368.94;4999892;28;20109;-48
2023/10/11 01:55:14;;;;;;;11.30;5.50;;;;;;;14.91;84.31;101363.00;4992891;28;20099;-48
2023/10/11 01:57:45;;;;;;;12.70;5.32;;;;;;;14.89;84.51;101369.44;4998113;28;20061;-47
2023/10/11 02:00:13;;;;;;;8.23;5.40;;;;;;;14.87;84.45;101366.94;4998684;28;20038;-48
2023/10/11 02:02:47;;;;;;;11.95;5.13;;;;;;;14.85;84.64;101362.69;4999354;28;20022;-47
2023/10/11 02:05:15;;;;;;;12.52;4.72;;;;;;;14.79;84.80;101356.91;4998663;28;20026;-47
2023/10/11 02:07:40;;;;;;;9.65;5.68;;;;;;;14.77;85.33;101347.28;4998243;28;20049;-48
2023/10/11 02:10:08;;;;;;;7.50;5.10;;;;;;;14.73;85.46;101340.53;5000447;28;20486;-48
2023/10/11 02:12:35;;;;;;;13.00;5.68;;;;;;;14.71;85.43;101337.16;5001777;28;20068;-47
2023/10/11 02:15:07;;;;;;;10.35;5.60;;;;;;;14.68;85.98;101342.75;4998702;28;20484;-47
2023/10/11 02:17:37;;;;;;;9.93;5.18;;;;;;;14.65;85.75;101338.50;4996628;28;20109;-47
2023/10/11 02:20:04;;;;;;;9.52;5.50;;;;;;;14.63;86.40;101329.78;5000832;28;20022;-46
2023/10/11 02:22:32;;;;;;;10.07;5.30;;;;;;;14.60;86.07;101333.59;4997845;28;20030;-47
2023/10/11 02:24:59;;;;;;;9.70;4.97;;;;;;;14.57;86.78;101331.13;4997860;28;20054;-47
2023/10/11 02:27:25;;;;;;;8.90;5.45;;;;;;;14.56;86.31;101325.91;4996629;28;20035;-48
2023/10/11 02:29:51;;;;;;;11.25;5.88;;;;;;;14.53;86.49;101327.03;5000485;28;20037;-47
2023/10/11 02:32:16;;;;;;;13.27;5.38;;;;;;;14.49;86.81;101320.25;4998053;28;20030;-48
2023/10/11 02:34:42;;;;;;;9.27;5.60;;;;;;;14.49;87.07;101328.28;5006277;28;20883;-48
2023/10/11 02:37:10;;;;;;;11.93;6.40;;;;;;;14.46;87.27;101327.69;4997011;28;20030;-47
2023/10/11 02:39:42;;;;;;;13.05;6.00;;;;;;;14.43;87.78;101323.44;4998538;28;20026;-48
2023/10/11 02:42:08;;;;;;;11.93;5.75;;;;;;;14.41;87.71;101322.72;4996094;28;20091;-47
2023/10/11 02:44:36;;;;;;;10.38;6.00;;;;;;;14.40;87.49;101332.56;4999124;28;20034;-47
2023/10/11 02:47:01;;;;;;;9.82;6.15;;;;;;;14.39;87.33;101340.72;4997397;28;20076;-48
2023/10/11 02:49:31;;;;;;;7.38;5.60;;;;;;;14.36;88.07;101330.28;5001042;28;20554;-47
2023/10/11 02:51:57;;;;;;;9.75;5.88;;;;;;;14.35;88.31;101323.25;4995699;28;20030;-48
2023/10/11 02:54:26;;;;;;;9.55;5.72;;;;;;;14.31;88.26;101328.00;4999481;28;20375;-47
2023/10/11 02:56:52;;;;;;;10.02;5.45;;;;;;;14.30;88.10;101326.31;4997382;28;20038;-47
2023/10/11 02:59:19;;;;;;;9.52;5.53;;;;;;;14.28;88.91;101317.56;5000796;28;20025;-47
2023/10/11 03:01:46;;;;;;;11.15;5.80;;;;;;;14.25;88.63;101321.38;4996133;28;20113;-46
2023/10/11 03:04:15;;;;;;;9.88;6.15;;;;;;;14.23;88.84;101325.97;4998774;28;20131;-46
2023/10/11 03:06:47;;;;;;;13.02;5.75;;;;;;;14.23;89.01;101325.97;4997989;28;20030;-49
2023/10/11 03:09:12;;;;;;;11.43;5.93;;;;;;;14.21;89.33;101327.94;4996224;28;20026;-47
2023/10/11 03:11:45;;;;;;;10.32;6.03;;;;;;;14.18;89.64;101317.50;4999542;28;20593;-49
2023/10/11 03:14:12;;;;;;;10.70;5.63;;;;;;;14.16;89.52;101311.44;4997849;28;20069;-47
2023/10/11 03:16:42;;;;;;;8.45;6.05;;;;;;;14.15;89.87;101306.22;4998450;28;20025;-47
2023/10/11 03:19:09;;;;;;;12.80;6.30;;;;;;;14.14;89.81;101301.84;4995750;28;20039;-49
2023/10/11 03:21:35;;;;;;;12.75;6.35;;;;;;;14.13;90.07;101305.53;4999727;28;20068;-48
2023/10/11 03:24:04;;;;;;;11.65;6.32;;;;;;;14.11;90.06;101305.66;4996317;28;20058;-49
2023/10/11 03:28:57;;;;;;;11.82;5.95;;;;;;;14.11;90.62;101307.47;4995246;28;20063;-50
2023/10/11 03:31:31;;;;;;;13.50;6.45;;;;;;;14.06;90.68;101299.84;5001866;28;20034;-47
2023/10/11 03:33:57;;;;;;;9.15;6.07;;;;;;;14.06;90.85;101302.53;4997310;28;20042;-48
2023/10/11 03:36:43;;;;;;;12.95;6.43;;;;;;;14.05;91.24;101295.47;5000659;28;20566;-49
2023/10/11 03:39:09;;;;;;;10.57;6.40;;;;;;;14.02;91.29;101298.41;4997758;28;20102;-49
2023/10/11 03:41:45;;;;;;;12.77;7.15;;;;;;;14.02;91.64;101301.06;4998056;28;20080;-48
2023/10/11 03:44:17;;;;;;;9.75;6.78;;;;;;;13.99;92.09;101304.00;4999156;28;20395;-47
2023/10/11 03:46:47;;;;;;;12.05;6.25;;;;;;;13.96;92.59;101307.78;4994070;28;20078;-47
2023/10/11 03:51:43;;;;;;;13.57;7.28;;;;;;;13.94;92.54;101299.06;4997294;28;20039;-48
2023/10/11 03:54:24;;;;;;;13.32;6.65;;;;;;;13.93;93.16;101296.50;4999347;28;20031;-48
2023/10/11 03:56:54;;;;;;;11.10;6.70;;;;;;;13.91;93.21;101290.47;4996754;28;20477;-48
2023/10/11 03:59:25;;;;;;;12.30;7.05;;;;;;;13.88;93.04;101297.72;4996909;28;20034;-47
2023/10/11 04:01:51;;;;;;;12.18;6.45;;;;;;;13.87;93.18;101287.19;4998152;28;20039;-47
2023/10/11 04:04:17;;;;;;;9.90;6.55;;;;;;;13.86;93.60;101289.00;4996995;28;20387;-49
2023/10/11 04:06:50;;;;;;;12.18;6.95;;;;;;;13.87;94.18;101289.84;4997031;28;20030;-48
2023/10/11 04:12:00;;;;;;;12.23;6.68;;;;;;;13.84;94.33;101285.63;4996978;28;20063;-47
2023/10/11 04:14:44;;;;;;;11.65;7.20;;;;;;;13.82;94.09;101284.91;4996396;28;20373;-49
2023/10/11 04:19:51;;;;;;;11.07;6.47;;;;;;;13.80;95.16;101270.81;5002455;28;20041;-47
2023/10/11 04:22:18;;;;;;;12.90;6.95;;;;;;;13.78;94.73;101263.94;5000659;28;20030;-47
2023/10/11 04:24:45;;;;;;;13.40;7.03;;;;;;;13.80;95.02;101272.66;5001350;28;20037;-47
2023/10/11 04:30:17;;;;;;;15.02;7.53;;;;;;;13.79;95.82;101268.28;4997842;28;20041;-47
2023/10/11 04:32:45;;;;;;;13.45;7.05;;;;;;;13.76;95.97;101266.72;5002038;28;20088;-47
2023/10/11 04:37:52;;;;;;;16.23;7.70;;;;;;;13.79;96.07;101269.16;5005347;28;20065;-47
2023/10/11 04:40:34;;;;;;;12.95;7.55;;;;;;;13.79;95.84;101271.81;5004399;28;20037;-47
2023/10/11 04:45:50;;;;;;;9.70;6.77;;;;;;;13.79;96.08;101270.94;5001776;28;20419;-47
2023/10/11 04:48:32;;;;;;;13.52;7.53;;;;;;;13.79;96.08;101274.50;4999581;28;20543;-47
2023/10/11 04:59:06;;;;;;;11.25;7.40;;;;;;;13.81;96.14;101285.03;4999071;28;20087;-48
2023/10/11 05:04:16;;;;;;;12.52;7.47;;;;;;;13.80;96.54;101283.34;4997783;28;20172;-47
2023/10/11 05:06:43;;;;;;;11.32;7.35;;;;;;;13.81;96.82;101285.88;5001129;28;20042;-45
2023/10/11 05:11:50;;;;;;;13.70;7.85;;;;;;;13.82;97.26;101284.91;4999516;28;20037;-46
2023/10/11 05:19:44;;;;;;;12.98;8.02;;;;;;;13.80;97.40;101286.00;4999541;28;20034;-46
2023/10/11 05:22:29;;;;;;;10.75;7.15;;;;;;;13.79;97.54;101285.16;4997587;28;20075;-47
2023/10/11 05:51:48;;;;;;;13.38;8.27;;;;;;;13.74;99.33;101287.38;4995219;28;20057;-46
2023/10/11 05:54:15;;;;;;;13.75;8.32;;;;;;;13.73;99.17;101285.66;5003139;28;20026;-47
2023/10/11 05:56:47;;;;;;;14.18;8.27;;;;;;;13.73;99.46;101288.34;4993207;28;20109;-46
2023/10/11 05:59:14;;;;;;;17.02;8.23;;;;;;;13.73;98.93;101300.84;4999728;28;20026;-48
2023/10/11 06:01:43;;;;;;;13.85;8.50;;;;;;;13.73;99.74;101293.69;4992329;28;20037;-47
2023/10/11 06:04:09;;;;;;;12.40;8.05;;;;;;;13.74;99.56;101297.19;4995063;28;20088;-48
2023/10/11 06:06:42;;;;;;;12.50;8.02;;;;;;;13.75;99.63;101306.91;5004384;28;20042;-47
2023/10/11 06:09:16;;;;;;;14.55;9.07;;;;;;;13.75;99.82;101305.06;4997368;28;20079;-47
2023/10/11 06:11:47;;;;;;;12.05;8.43;;;;;;;13.75;100.00;101302.41;4994267;28;20026;-46
2023/10/11 06:14:17;;;;;;;16.00;8.15;;;;;;;13.76;99.69;101300.59;5001308;28;20112;-47
2023/10/11 06:16:49;;;;;;;13.73;8.00;;;;;;;13.76;100.00;101287.25;5004064;28;20108;-46
2023/10/11 06:19:18;;;;;;;15.68;8.80;;;;;;;13.76;100.00;101288.09;5003750;28;20172;-47
2023/10/11 06:21:56;;;;;;;14.63;8.75;;;;;;;13.79;99.72;101293.19;5002246;28;20083;-47
2023/10/11 06:24:30;;;;;;;12.57;8.40;;;;;;;13.82;100.00;101295.59;5005773;28;20100;-49
2023/10/11 06:27:11;;;;;;;13.50;8.55;;;;;;;13.81;100.00;101293.88;5005478;28;20028;-48
2023/10/11 06:29:53;;;;;;;14.48;8.27;;;;;;;13.84;100.00;101298.13;4999012;28;20053;-49
2023/10/11 06:32:19;;;;;;;17.20;9.10;;;;;;;13.88;100.00;101284.38;4997675;28;20450;-49
2023/10/11 06:34:47;;;;;;;17.20;8.93;;;;;;;13.92;100.00;101287.63;4997538;28;20067;-46
2023/10/11 06:37:16;;;;;;;11.82;8.35;;;;;;;13.95;100.00;101294.56;4995787;28;20373;-47
2023/10/11 06:45:01;;;;;;;13.98;8.73;;;;;;;14.02;100.00;101303.75;4995557;28;20273;-47
2023/10/11 06:47:33;;;;;;;13.00;8.52;;;;;;;14.05;100.00;101303.50;5000577;28;20176;-47
2023/10/11 06:49:59;;;;;;;16.20;9.10;;;;;;;14.07;100.00;101304.19;4997042;28;20057;-47
2023/10/11 06:52:30;;;;;;;15.98;8.73;;;;;;;14.09;100.00;101299.59;4992813;28;20170;-48
2023/10/11 06:55:16;;;;;;;13.30;8.70;;;;;;;14.14;100.00;101301.84;4996029;28;20045;-46
2023/10/11 06:57:50;;;;;;;13.45;8.35;;;;;;;14.19;99.71;101305.00;4996847;28;20042;-47
2023/10/11 07:00:28;;;;;;;11.95;9.05;;;;;;;14.22;100.00;101305.59;4994523;28;20084;-47
2023/10/11 07:03:21;;;;;;;16.92;8.93;;;;;;;14.27;99.59;101304.34;4991831;28;20045;-47
2023/10/11 07:05:48;;;;;;;14.43;8.50;;;;;;;14.30;99.58;101304.09;4997598;28;20388;-46
2023/10/11 07:08:17;;;;;;;14.05;8.48;;;;;;;14.34;99.27;101313.53;5001459;28;20040;-48
2023/10/11 07:10:47;;;;;;;15.98;8.50;;;;;;;14.37;99.08;101310.59;4998247;28;20058;-47
2023/10/11 07:13:13;;;;;;;16.45;8.23;;;;;;;14.40;99.34;101305.81;4998658;28;20100;-47
2023/10/11 07:15:41;;;;;;;13.15;8.55;;;;;;;14.46;99.04;101327.69;4996677;28;20022;-46
2023/10/11 07:18:08;;;;;;;14.00;9.23;;;;;;;14.52;99.36;101327.16;4993358;28;20019;-47
2023/10/11 07:20:47;;;;;;;17.35;8.45;;;;;;;14.56;98.71;101340.13;4996220;28;20114;-49
2023/10/11 07:23:18;;;;;;;15.55;8.90;;;;;;;14.62;98.16;101352.13;4991172;28;20073;-47
2023/10/11 07:25:45;;;;;;;18.52;9.00;;;;;;;14.66;98.04;101348.25;4995514;28;20037;-47
2023/10/11 07:28:14;;;;;;;14.48;8.57;;;;;;;14.72;98.21;101360.22;4994880;28;20022;-46
2023/10/11 07:30:39;;;;;;;15.13;8.80;;;;;;;14.77;97.70;101364.22;4998301;28;20026;-47
2023/10/11 07:33:04;;;;;;;12.07;8.02;;;;;;;14.83;97.41;101357.47;4996717;28;20435;-47
2023/10/11 07:35:30;;;;;;;11.35;8.18;;;;;;;14.88;97.53;101357.09;5000169;28;20041;-51
2023/10/11 07:37:56;;;;;;;16.67;8.82;;;;;;;14.95;98.21;101355.56;4994876;28;20504;-47
2023/10/11 07:40:33;;;;;;;13.63;8.73;;;;;;;15.02;97.84;101348.72;4991072;28;20152;-46
2023/10/11 07:42:59;;;;;;;15.98;8.45;;;;;;;15.09;97.59;101352.53;4996597;28;20062;-47
2023/10/11 07:45:26;;;;;;;13.95;8.65;;;;;;;15.18;97.16;101356.22;4998796;28;20583;-48
2023/10/11 07:47:52;;;;;;;15.50;8.88;;;;;;;15.26;96.31;101347.53;4994617;28;20387;-47
2023/10/11 07:50:23;;;;;;;14.57;7.80;;;;;;;15.34;96.57;101347.69;4991829;28;20034;-48
2023/10/11 07:52:49;;;;;;;15.52;9.02;;;;;;;15.42;96.37;101345.19;4997026;28;20061;-49
2023/10/11 07:55:17;;;;;;;13.70;8.00;;;;;;;15.53;96.92;101352.25;5002142;28;20491;-48
2023/10/11 07:57:45;;;;;;;13.40;8.15;;;;;;;15.63;96.38;101350.44;5001707;28;20023;-48
2023/10/11 08:00:19;;;;;;;16.00;8.07;;;;;;;15.81;96.74;101349.78;5002277;28;20099;-48
2023/10/11 08:02:55;;;;;;;16.33;8.75;;;;;;;15.91;95.18;101358.69;4999439;28;20038;-48
2023/10/11 08:05:22;;;;;;;15.40;8.05;;;;;;;16.06;95.58;101343.88;5002255;28;20042;-48
2023/10/11 08:07:47;;;;;;;14.50;8.48;;;;;;;16.21;94.92;101346.13;5001279;28;20022;-48
2023/10/11 08:10:33;;;;;;;14.77;8.70;;;;;;;16.33;93.46;101352.19;5002635;28;20120;-47
2023/10/11 08:13:14;;;;;;;17.15;8.40;;;;;;;16.43;92.94;101347.66;5003542;28;20060;-48
2023/10/11 08:15:39;;;;;;;15.93;9.05;;;;;;;16.48;92.24;101339.19;4999860;28;20026;-51
2023/10/11 08:18:04;;;;;;;17.25;8.57;;;;;;;16.60;93.78;101346.06;5004603;28;20022;-49
2023/10/11 08:20:30;;;;;;;21.00;8.30;;;;;;;16.67;92.26;101347.19;4997418;28;20026;-47
2023/10/11 08:22:56;;;;;;;14.73;8.52;;;;;;;16.75;91.90;101355.38;5003699;28;20108;-49
2023/10/11 08:25:26;;;;;;;12.43;8.60;;;;;;;16.78;91.30;101354.22;5000960;28;20159;-48
2023/10/11 08:28:04;;;;;;;15.30;8.48;;;;;;;16.81;91.06;101365.50;5000704;28;20025;-49
2023/10/11 08:30:31;;;;;;;12.93;8.13;;;;;;;16.85;91.09;101373.28;4989541;28;20030;-48
2023/10/11 08:32:56;;;;;;;12.25;7.57;;;;;;;16.91;91.30;101376.22;4998175;28;20459;-48
2023/10/11 08:35:31;;;;;;;16.08;8.07;;;;;;;16.99;91.29;101375.50;4995798;28;20041;-49
2023/10/11 08:38:02;;;;;;;15.02;8.13;;;;;;;17.03;90.06;101360.78;5000377;28;20035;-49
2023/10/11 08:40:35;;;;;;;16.98;8.13;;;;;;;17.12;90.68;101370.66;4999255;28;20040;-48
2023/10/11 08:43:02;;;;;;;16.17;8.25;;;;;;;17.22;90.14;101362.56;4994835;28;20040;-49
2023/10/11 08:45:33;;;;;;;15.40;7.97;;;;;;;17.34;90.46;101363.22;5008698;28;20050;-48
2023/10/11 08:48:00;;;;;;;15.60;8.32;;;;;;;17.40;90.05;101365.28;5001071;28;20026;-49
2023/10/11 08:50:31;;;;;;;12.07;7.80;;;;;;;17.52;89.95;101372.16;4998659;28;20038;-48
2023/10/11 08:52:57;;;;;;;16.52;8.75;;;;;;;17.66;88.92;101370.78;4999357;28;20081;-52
2023/10/11 08:55:24;;;;;;;14.82;8.80;;;;;;;17.79;89.49;101365.06;4998974;28;20480;-49
2023/10/11 08:57:50;;;;;;;21.65;8.38;;;;;;;17.84;89.42;101368.13;5000777;28;20050;-48
2023/10/11 09:00:28;;;;;;;14.98;9.13;;;;;;;17.85;89.21;101382.41;5000222;28;20033;-51
2023/10/11 09:02:54;;;;;;;12.93;8.85;;;;;;;17.93;89.24;101390.56;4997364;28;20088;-48
2023/10/11 09:05:29;;;;;;;14.30;8.60;;;;;;;17.94;88.45;101395.81;4997515;28;20033;-49
2023/10/11 09:07:55;;;;;;;17.45;8.82;;;;;;;18.03;89.02;101382.44;5003387;28;20472;-49
2023/10/11 09:10:25;;;;;;;16.58;9.80;;;;;;;18.10;88.83;101388.88;5002296;28;20026;-48
2023/10/11 09:12:56;;;;;;;17.83;10.73;;;;;;;18.12;88.44;101392.28;4999550;28;20491;-47
2023/10/11 09:15:23;;;;;;;20.08;10.82;;;;;;;18.14;88.32;101381.38;5004758;28;20105;-49
2023/10/11 09:17:50;;;;;;;19.90;11.52;;;;;;;18.15;88.64;101391.13;5000015;28;20654;-48
2023/10/11 09:20:16;;;;;;;20.20;11.90;;;;;;;18.19;89.35;101376.38;4998935;28;20061;-48
2023/10/11 09:22:47;;;;;;;17.63;11.70;;;;;;;18.19;89.17;101381.75;4994725;28;20125;-48
2023/10/11 09:25:23;;;;;;;22.15;13.07;;;;;;;18.17;89.40;101384.59;4996643;28;20026;-49
2023/10/11 09:27:49;;;;;;;20.90;12.48;;;;;;;18.19;89.67;101382.59;5001768;28;20129;-49
2023/10/11 09:30:19;;;;;;;20.48;13.40;;;;;;;18.21;89.68;101388.66;4996698;28;20113;-50
2023/10/11 09:32:48;;;;;;;24.50;13.98;;;;;;;18.23;89.51;101397.41;4996347;28;20465;-51
2023/10/11 09:35:26;;;;;;;;;;;;;;;18.33;89.89;101397.34;4997508;28;20118;-52
2023/10/11 09:38:00;;;;;;;18.77;13.00;;;;;;;18.31;90.39;101396.66;5011436;28;19917;-50
2023/10/11 09:40:35;;;;;;;20.15;13.32;;;;;;;18.34;90.59;101398.19;4999020;28;20018;-48
2023/10/11 09:43:01;;;;;;;22.40;13.50;;;;;;;18.34;91.19;101406.25;4997468;28;20376;-48
2023/10/11 09:45:44;;;;;;;22.05;13.55;;;;;;;18.36;90.58;101405.09;4995855;28;20281;-50
2023/10/11 09:48:12;;;;;;;21.50;13.15;;;;;;;18.36;90.60;101406.94;4996783;28;20034;-50
2023/10/11 09:50:41;;;;;;;20.98;14.13;;;;;;;18.32;90.54;101401.03;4997686;28;20030;-51
2023/10/11 09:53:16;;;;;;;20.13;13.27;;;;;;;18.40;91.42;101400.25;4994666;28;20049;-49
2023/10/11 09:55:58;;;;;;;21.60;14.20;;;;;;;18.45;91.80;101398.81;4998781;28;20072;-51
2023/10/11 09:58:41;;;;;;;25.88;14.73;;;;;;;18.43;91.46;101400.78;4994606;28;20027;-50
2023/10/11 10:01:51;;;;;;;20.13;14.25;;;;;;;18.43;91.02;101390.00;4995726;28;20033;-51
2023/10/11 10:04:20;;;;;;;21.35;15.48;;;;;;;18.35;91.30;101391.81;5013308;28;20045;-49
2023/10/11 10:07:10;;;;;;;23.05;16.13;;;;;;;18.35;92.29;101408.78;4994152;28;20480;-48
2023/10/11 10:09:52;;;;;;;22.83;16.48;;;;;;;18.31;92.43;101397.47;4991847;28;20072;-49
2023/10/11 10:12:21;;;;;;;25.20;16.67;;;;;;;18.29;93.17;101412.09;4992870;28;20037;-48
2023/10/11 10:14:50;;;;;;;;;;;;;;;18.38;92.14;101408.47;5001929;28;20026;-50
2023/10/11 10:17:16;;;;;;;25.52;17.13;;;;;;;18.24;93.11;101417.94;5001063;28;19924;-48
2023/10/11 10:19:44;;;;;;;26.35;17.38;;;;;;;18.20;93.06;101421.94;4998030;28;20030;-50
2023/10/11 10:22:17;;;;;;;26.35;18.65;;;;;;;18.16;93.75;101423.22;4997216;28;20059;-51
2023/10/11 10:24:44;;;;;;;29.13;18.23;;;;;;;18.12;94.34;101427.25;4994755;28;20032;-48
2023/10/11 10:27:37;;;;;;;26.00;18.50;;;;;;;18.12;94.26;101419.19;5003120;28;20029;-50
2023/10/11 10:30:05;;;;;;;27.83;17.80;;;;;;;18.03;95.16;101415.53;4998422;28;20034;-52
2023/10/11 10:32:30;;;;;;;27.88;18.30;;;;;;;18.04;95.35;101406.50;4993129;28;20113;-48
2023/10/11 10:35:20;;;;;;;31.40;18.65;;;;;;;18.10;95.17;101413.94;4997567;28;20114;-49
2023/10/11 10:37:45;;;;;;;32.92;19.00;;;;;;;18.05;95.20;101408.19;4997215;28;20084;-48
2023/10/11 10:40:18;;;;;;;28.83;18.20;;;;;;;18.07;95.82;101399.97;4995487;28;20026;-48
2023/10/11 10:43:06;;;;;;;28.85;17.75;;;;;;;18.13;96.12;101407.41;4997469;28;20033;-48
2023/10/11 10:45:31;;;;;;;28.27;17.55;;;;;;;18.16;95.86;101403.56;4997747;28;20064;-48
2023/10/11 10:48:14;;;;;;;28.60;18.58;;;;;;;18.19;95.78;101405.97;4994772;28;20018;-51
2023/10/11 10:50:50;;;;;;;26.08;18.08;;;;;;;18.17;96.25;101402.56;4996771;28;20044;-49
2023/10/11 10:53:16;;;;;;;25.58;17.83;;;;;;;18.12;95.87;101403.03;4997382;28;20187;-48
2023/10/11 10:55:45;;;;;;;25.10;17.77;;;;;;;18.13;96.13;101415.47;4997401;28;20548;-48
2023/10/11 10:58:16;;;;;;;;;;;;;;;18.24;95.01;101415.25;4998492;28;20030;-48
2023/10/11 11:00:43;;;;;;;27.02;17.55;;;;;;;18.16;96.66;101414.34;4992574;28;19949;-50
2023/10/11 11:03:24;;;;;;;30.23;18.10;;;;;;;18.20;96.12;101404.94;4991319;28;20022;-47
2023/10/11 11:05:56;;;;;;;26.20;17.83;;;;;;;18.18;96.87;101407.78;4996645;28;20067;-48
2023/10/11 11:08:29;;;;;;;26.08;18.00;;;;;;;18.16;96.53;101401.72;4998710;28;20472;-51
2023/10/11 11:10:54;;;;;;;27.15;17.20;;;;;;;18.17;96.10;101407.94;4998902;28;20588;-53
2023/10/11 11:13:25;;;;;;;26.43;17.87;;;;;;;18.14;96.64;101405.59;5006690;28;20109;-51
2023/10/11 11:15:55;;;;;;;25.25;17.23;;;;;;;18.18;97.08;101390.81;4995530;28;20030;-50
2023/10/11 11:18:31;;;;;;;28.00;17.02;;;;;;;18.19;97.34;101385.28;4997248;28;20037;-50
2023/10/11 11:20:59;;;;;;;23.00;16.75;;;;;;;18.22;97.20;101373.38;4994284;28;20076;-48
2023/10/11 11:23:27;;;;;;;26.20;16.65;;;;;;;18.25;97.10;101375.75;4999200;28;20075;-50
2023/10/11 11:25:53;;;;;;;25.13;15.95;;;;;;;18.25;97.29;101368.53;4995414;28;20030;-50
2023/10/11 11:28:20;;;;;;;34.38;16.60;;;;;;;18.30;97.10;101379.69;4996808;28;20098;-50
2023/10/11 11:30:51;;;;;;;23.55;16.20;;;;;;;18.30;97.50;101385.06;4997526;28;20091;-50
2023/10/11 11:33:35;;;;;;;27.05;15.77;;;;;;;18.33;97.32;101367.75;4996796;28;20082;-53
2023/10/11 11:36:10;;;;;;;25.67;16.20;;;;;;;18.35;96.51;101360.38;4995523;28;20091;-50
2023/10/11 11:38:46;;;;;;;25.60;16.48;;;;;;;18.37;96.51;101366.47;4999469;28;20480;-49
2023/10/11 11:41:16;;;;;;;25.58;15.43;;;;;;;18.38;96.96;101360.06;5000779;28;20547;-52
2023/10/11 11:43:42;;;;;;;26.67;15.68;;;;;;;18.38;96.26;101335.84;4997397;28;20042;-51
2023/10/11 11:46:08;;;;;;;22.80;16.10;;;;;;;18.40;96.47;101333.88;4996496;28;20458;-51
2023/10/11 11:48:44;;;;;;;23.88;15.75;;;;;;;18.37;96.50;101334.19;4995125;28;20141;-50
2023/10/11 11:51:16;;;;;;;22.83;15.38;;;;;;;18.36;96.80;101335.19;4997941;28;20030;-49
2023/10/11 11:53:45;;;;;;;26.45;16.00;;;;;;;18.36;96.79;101326.28;4996987;28;20025;-50
2023/10/11 11:56:11;;;;;;;26.30;15.63;;;;;;;18.37;96.66;101336.00;4995827;28;20539;-53
2023/10/11 11:58:46;;;;;;;23.90;15.43;;;;;;;18.40;96.22;101341.06;4997203;28;20026;-51
2023/10/11 12:01:19;;;;;;;24.42;14.35;;;;;;;18.44;97.17;101334.41;5012528;28;20069;-50
2023/10/11 12:03:54;;;;;;;26.42;14.90;;;;;;;18.47;96.66;101326.84;4995802;28;20065;-51
2023/10/11 12:06:22;;;;;;;23.40;14.63;;;;;;;18.54;96.04;101305.53;5014708;28;20065;-49
2023/10/11 12:08:58;;;;;;;24.75;14.98;;;;;;;18.64;95.96;101295.50;4997987;28;20030;-51
2023/10/11 12:11:28;;;;;;;20.23;14.88;;;;;;;18.66;94.86;101296.19;4998868;28;20034;-50
2023/10/11 12:13:57;;;;;;;22.65;14.98;;;;;;;18.75;94.36;101297.09;4995600;28;20126;-51
2023/10/11 12:16:24;;;;;;;20.58;13.95;;;;;;;18.89;94.65;101292.16;4998446;28;20113;-49
2023/10/11 12:18:49;;;;;;;20.40;12.63;;;;;;;19.02;93.94;101287.16;4996960;28;20117;-49
2023/10/11 12:21:15;;;;;;;21.70;14.30;;;;;;;19.15;93.18;101284.84;4998571;28;20113;-53
2023/10/11 12:23:47;;;;;;;22.67;13.30;;;;;;;19.23;92.38;101289.41;4995822;28;20651;-51
2023/10/11 12:26:16;;;;;;;19.85;12.38;;;;;;;19.35;92.64;101284.56;4998012;28;20453;-49
2023/10/11 12:28:45;;;;;;;23.35;12.98;;;;;;;19.45;92.17;101287.97;4995867;28;20034;-51
2023/10/11 12:31:10;;;;;;;23.00;13.65;;;;;;;19.54;90.88;101299.59;4993786;28;20476;-49
2023/10/11 12:33:36;;;;;;;23.75;13.95;;;;;;;19.55;89.28;101290.50;4995235;28;20033;-50
2023/10/11 12:36:05;;;;;;;24.92;13.25;;;;;;;19.56;89.39;101295.72;4995554;28;20062;-50
2023/10/11 12:38:36;;;;;;;24.65;13.23;;;;;;;19.59;89.13;101294.56;4995117;28;20150;-48
2023/10/11 12:41:04;;;;;;;23.10;12.20;;;;;;;19.61;90.39;101287.13;4999658;28;20083;-49